Time;durP1;ratioP1;P1;durP2;ratioP2;P2;SDS_P1;SDS_P2;PMS_P1;PMS_P2;Temp;Humidity;BMP_temperature;BMP_pressure;BME280_temperature;BME280_humidity;BME280_pressure;Samples;Min_cycle;Max_cycle;Signal;HPM_P1;HPM_P2
2022/10/07 00:00:58;;;;;;;9.80;4.50;;;;;;;11.51;100.00;97394.22;5021350;28;20421;-78
2022/10/07 00:03:25;;;;;;;7.63;4.00;;;;;;;11.37;100.00;97392.81;5005389;28;20397;-78
2022/10/07 00:06:15;;;;;;;8.23;4.40;;;;;;;11.35;100.00;97400.00;4997392;28;20037;-78
2022/10/07 00:08:47;;;;;;;10.23;4.23;;;;;;;11.35;100.00;97389.47;5001658;28;20073;-78
2022/10/07 00:11:25;;;;;;;9.50;4.30;;;;;;;11.16;100.00;97395.50;4995384;28;20034;-78
2022/10/07 00:13:57;;;;;;;6.93;4.07;;;;;;;11.23;100.00;97386.13;4995384;28;20792;-78
2022/10/07 00:16:32;;;;;;;7.83;3.90;;;;;;;11.35;100.00;97388.63;4982995;28;20036;-78
2022/10/07 00:19:01;;;;;;;10.87;4.23;;;;;;;11.33;100.00;97388.75;5013161;28;20061;-78
2022/10/07 00:21:31;;;;;;;9.53;3.80;;;;;;;11.21;100.00;97400.38;5003583;28;20041;-78
2022/10/07 00:23:57;;;;;;;7.67;3.90;;;;;;;11.18;100.00;97393.59;5001872;28;20487;-78
2022/10/07 00:26:25;;;;;;;10.33;4.00;;;;;;;11.19;100.00;97394.41;5024946;28;20030;-78
2022/10/07 00:28:53;;;;;;;7.73;3.63;;;;;;;11.26;100.00;97385.81;5008198;28;20034;-78
2022/10/07 00:31:22;;;;;;;8.43;3.83;;;;;;;11.25;100.00;97383.34;5029238;28;20509;-78
2022/10/07 00:33:48;;;;;;;7.20;3.97;;;;;;;11.28;100.00;97375.19;5021606;28;20034;-78
2022/10/07 00:36:22;;;;;;;11.43;3.60;;;;;;;11.29;100.00;97379.47;5024926;28;20041;-78
2022/10/07 00:39:03;;;;;;;10.07;4.00;;;;;;;11.28;100.00;97372.53;5001124;28;20172;-79
2022/10/07 00:41:33;;;;;;;7.87;3.50;;;;;;;11.26;100.00;97369.19;4995775;28;20073;-77
2022/10/07 00:44:19;;;;;;;8.27;4.00;;;;;;;11.24;100.00;97366.72;5030371;28;20398;-77
2022/10/07 00:46:45;;;;;;;6.90;3.50;;;;;;;11.33;100.00;97362.41;5018351;28;20155;-77
2022/10/07 00:49:12;;;;;;;10.37;4.27;;;;;;;11.20;100.00;97364.47;5016767;28;20064;-78
2022/10/07 00:51:42;;;;;;;10.83;4.30;;;;;;;11.21;100.00;97366.97;4998483;28;20277;-78
2022/10/07 00:54:15;;;;;;;9.47;4.57;;;;;;;11.23;100.00;97367.69;5004537;28;20116;-78
2022/10/07 00:56:46;;;;;;;9.27;4.15;;;;;;;11.17;100.00;97375.31;5019457;28;20120;-78
2022/10/07 00:59:13;;;;;;;8.27;4.00;;;;;;;11.13;100.00;97358.09;5015422;28;20126;-78
2022/10/07 01:01:40;;;;;;;8.43;3.77;;;;;;;11.13;100.00;97355.44;4996715;28;20098;-78
2022/10/07 01:04:10;;;;;;;7.77;3.33;;;;;;;11.19;100.00;97362.81;5021836;28;20041;-78
2022/10/07 01:06:38;;;;;;;6.73;3.80;;;;;;;11.12;100.00;97356.44;5013525;28;20047;-77
2022/10/07 01:09:07;;;;;;;13.53;4.10;;;;;;;11.18;100.00;97350.63;5010455;28;20236;-78
2022/10/07 01:11:48;;;;;;;12.40;3.50;;;;;;;11.18;100.00;97345.34;4992039;28;20049;-78
2022/10/07 01:14:28;;;;;;;8.90;3.63;;;;;;;11.21;100.00;97345.09;5017928;28;20042;-78
2022/10/07 01:16:57;;;;;;;8.17;3.20;;;;;;;11.23;100.00;97344.00;5008862;28;20037;-78
2022/10/07 01:19:22;;;;;;;7.70;3.53;;;;;;;11.31;100.00;97340.66;4992157;28;20570;-78
2022/10/07 01:22:20;;;;;;;6.97;3.30;;;;;;;11.36;100.00;97330.53;5021631;28;20120;-78
2022/10/07 01:24:52;;;;;;;9.10;3.97;;;;;;;11.39;100.00;97321.53;5016930;28;20117;-78
2022/10/07 01:27:21;;;;;;;9.20;3.53;;;;;;;11.37;100.00;97318.19;5000191;28;20037;-76
2022/10/07 01:29:54;;;;;;;11.63;4.47;;;;;;;11.32;100.00;97316.00;5008457;28;20369;-78
2022/10/07 01:32:35;;;;;;;7.73;3.20;;;;;;;11.39;100.00;97306.56;5021035;28;20646;-76
2022/10/07 01:35:07;;;;;;;6.83;3.50;;;;;;;11.42;100.00;97308.09;4995811;28;20140;-78
2022/10/07 01:37:39;;;;;;;7.43;3.23;;;;;;;11.48;100.00;97307.56;5013521;28;20033;-78
2022/10/07 01:40:11;;;;;;;8.63;2.80;;;;;;;11.44;100.00;97304.38;4995661;28;20128;-78
2022/10/07 01:42:39;;;;;;;8.40;4.03;;;;;;;11.43;100.00;97301.84;5003345;28;20102;-78
2022/10/07 01:45:09;;;;;;;9.43;3.97;;;;;;;11.50;100.00;97303.81;5002876;28;20085;-79
2022/10/07 01:47:37;;;;;;;10.93;4.50;;;;;;;11.41;100.00;97304.63;5003805;28;20037;-78
2022/10/07 01:50:10;;;;;;;8.47;3.50;;;;;;;11.40;100.00;97297.72;5004589;28;20086;-79
2022/10/07 01:52:59;;;;;;;10.60;4.25;;;;;;;11.34;100.00;97303.53;5019031;28;20030;-79
2022/10/07 01:55:40;;;;;;;12.03;4.27;;;;;;;11.38;100.00;97296.19;5012018;28;20034;-78
2022/10/07 01:58:13;;;;;;;11.50;3.83;;;;;;;11.46;100.00;97294.50;5000729;28;20309;-78
2022/10/07 02:00:49;;;;;;;7.28;3.17;;;;;;;11.43;100.00;97288.69;5011049;28;20442;-78
2022/10/07 02:03:51;;;;;;;7.80;3.77;;;;;;;11.47;100.00;97292.72;5009662;28;20034;-78
2022/10/07 02:06:32;;;;;;;9.10;3.77;;;;;;;11.46;100.00;97291.88;5019955;28;20033;-79
2022/10/07 02:09:05;;;;;;;9.00;3.83;;;;;;;11.44;100.00;97290.38;5015159;28;20104;-79
2022/10/07 02:11:38;;;;;;;9.97;3.90;;;;;;;11.33;100.00;97284.28;4997482;28;20034;-78
2022/10/07 02:14:21;;;;;;;5.00;2.45;;;;;;;11.25;100.00;97292.00;5021840;28;20129;-78
2022/10/07 02:17:00;;;;;;;8.57;4.40;;;;;;;11.22;100.00;97294.09;5026723;28;20033;-78
2022/10/07 02:19:42;;;;;;;8.00;3.90;;;;;;;11.25;100.00;97288.56;4987245;28;20180;-79
2022/10/07 02:22:12;;;;;;;8.63;4.07;;;;;;;11.38;100.00;97278.56;5019126;28;20406;-79
2022/10/07 02:24:40;;;;;;;12.37;4.77;;;;;;;11.41;100.00;97278.31;4994667;28;20044;-78
2022/10/07 02:27:11;;;;;;;9.37;5.93;;;;;;;11.42;100.00;97274.69;5010898;28;20165;-78
2022/10/07 02:29:41;;;;;;;9.97;4.37;;;;;;;11.45;100.00;97274.41;5013206;28;20044;-79
2022/10/07 02:32:14;;;;;;;9.23;3.83;;;;;;;11.43;100.00;97267.63;5025850;28;20801;-78
2022/10/07 02:34:42;;;;;;;;;;;;;;;11.28;100.00;97261.94;5008473;28;20031;-77
2022/10/07 02:37:23;;;;;;;9.03;3.80;;;;;;;11.28;100.00;97265.41;4991571;28;19956;-77
2022/10/07 02:39:50;;;;;;;7.47;3.90;;;;;;;11.29;100.00;97263.59;5012368;28;20092;-77
2022/10/07 02:42:34;;;;;;;8.17;4.23;;;;;;;11.31;100.00;97262.50;5015662;28;20033;-77
2022/10/07 02:45:22;;;;;;;11.20;3.72;;;;;;;11.23;100.00;97256.25;4991546;28;20438;-77
2022/10/07 02:47:55;;;;;;;7.03;4.03;;;;;;;11.26;100.00;97258.59;4991135;28;20046;-77
2022/10/07 02:50:24;;;;;;;14.10;4.47;;;;;;;11.25;100.00;97256.94;5011240;28;20036;-77
2022/10/07 02:52:54;;;;;;;7.17;3.60;;;;;;;11.29;100.00;97253.06;5002912;28;20029;-77
2022/10/07 02:55:25;;;;;;;8.67;3.87;;;;;;;11.26;100.00;97254.16;5011832;28;20037;-77
2022/10/07 02:57:56;;;;;;;7.40;3.90;;;;;;;11.30;100.00;97249.44;5012771;28;20098;-77
2022/10/07 03:00:22;;;;;;;8.67;3.97;;;;;;;11.24;100.00;97248.22;4990733;28;20026;-77
2022/10/07 03:02:56;;;;;;;7.37;4.33;;;;;;;11.26;100.00;97243.63;5009822;28;20115;-78
2022/10/07 03:05:28;;;;;;;10.87;4.40;;;;;;;11.28;100.00;97244.34;5015990;28;20715;-79
2022/10/07 03:08:06;;;;;;;9.63;4.03;;;;;;;11.33;100.00;97238.63;5012493;28;20095;-78
2022/10/07 03:10:32;;;;;;;9.23;4.47;;;;;;;11.21;100.00;97247.66;5038836;28;20033;-79
2022/10/07 03:12:58;;;;;;;9.50;4.47;;;;;;;11.19;100.00;97250.44;4992026;28;20038;-79
2022/10/07 03:15:24;;;;;;;8.83;4.20;;;;;;;11.22;100.00;97246.69;5020710;28;20040;-79
2022/10/07 03:17:51;;;;;;;10.67;4.37;;;;;;;11.28;100.00;97246.16;5021743;28;20034;-79
2022/10/07 03:20:17;;;;;;;9.63;4.03;;;;;;;11.27;100.00;97236.59;5035171;28;20080;-78
2022/10/07 03:22:43;;;;;;;8.27;3.77;;;;;;;11.39;100.00;97232.00;5010533;28;20376;-79
2022/10/07 03:25:12;;;;;;;6.40;3.50;;;;;;;11.37;100.00;97240.06;5018373;28;20037;-79
2022/10/07 03:27:38;;;;;;;10.33;4.40;;;;;;;11.35;100.00;97238.53;4994775;28;20026;-79
2022/10/07 03:30:06;;;;;;;9.53;4.90;;;;;;;11.36;100.00;97232.28;4994179;28;20125;-78
2022/10/07 03:32:33;;;;;;;8.90;4.53;;;;;;;11.33;100.00;97222.84;5025803;28;20041;-79
2022/10/07 03:34:59;;;;;;;8.03;4.33;;;;;;;11.24;100.00;97228.97;5004878;28;20067;-79
2022/10/07 03:37:25;;;;;;;10.37;4.90;;;;;;;11.31;100.00;97222.16;5017604;28;20078;-79
2022/10/07 03:39:54;;;;;;;6.30;3.90;;;;;;;11.31;100.00;97224.81;5030061;28;20487;-79
2022/10/07 03:42:20;;;;;;;8.70;4.70;;;;;;;11.24;100.00;97223.69;5042777;28;20033;-76
2022/10/07 03:44:48;;;;;;;9.57;4.40;;;;;;;11.26;100.00;97217.31;5016172;28;20720;-76
2022/10/07 03:47:20;;;;;;;10.75;5.18;;;;;;;11.23;100.00;97217.59;5001316;28;20042;-76
2022/10/07 03:49:46;;;;;;;6.90;4.30;;;;;;;11.30;100.00;97212.59;5025177;28;20546;-76
2022/10/07 03:52:12;;;;;;;10.77;4.23;;;;;;;11.31;100.00;97207.19;5012633;28;20152;-78
2022/10/07 03:54:38;;;;;;;7.87;4.50;;;;;;;11.38;100.00;97218.00;5010345;28;20034;-78
2022/10/07 03:57:48;;;;;;;10.10;4.30;;;;;;;11.31;100.00;97216.91;5016974;28;20052;-78
2022/10/07 03:59:54;;;;;;;10.17;4.37;;;;;;;11.38;100.00;97214.53;5013211;28;20061;-77
2022/10/07 04:02:22;;;;;;;6.30;3.90;;;;;;;11.41;100.00;97211.63;5008118;28;20457;-77
2022/10/07 04:04:51;;;;;;;11.63;5.20;;;;;;;11.28;100.00;97214.53;5011982;28;20646;-77
2022/10/07 04:07:20;;;;;;;10.83;4.67;;;;;;;11.23;100.00;97212.34;5009800;28;20037;-77
2022/10/07 04:09:46;;;;;;;8.53;4.30;;;;;;;11.32;100.00;97205.38;5006757;28;20030;-79
2022/10/07 04:12:11;;;;;;;8.33;4.53;;;;;;;11.36;100.00;97198.88;5034865;28;20040;-77
2022/10/07 04:14:38;;;;;;;10.03;5.27;;;;;;;11.29;100.00;97205.66;4995837;28;20088;-77
2022/10/07 04:17:04;;;;;;;10.60;4.40;;;;;;;11.41;100.00;97201.91;5036109;28;20087;-77
2022/10/07 04:19:29;;;;;;;8.47;4.93;;;;;;;11.32;100.00;97200.13;4994131;28;20054;-78
2022/10/07 04:21:57;;;;;;;13.00;4.87;;;;;;;11.29;100.00;97198.59;5013683;28;20056;-78
2022/10/07 04:24:23;;;;;;;8.37;4.40;;;;;;;11.24;100.00;97195.56;5010246;28;20072;-77
2022/10/07 04:26:49;;;;;;;8.97;3.87;;;;;;;11.21;100.00;97189.75;5020437;28;20423;-77
2022/10/07 04:29:14;;;;;;;7.47;4.10;;;;;;;11.22;100.00;97184.31;5013587;28;20898;-76
2022/10/07 04:31:40;;;;;;;7.80;4.60;;;;;;;11.30;100.00;97184.47;5007086;28;20037;-76
2022/10/07 04:34:07;;;;;;;8.27;4.20;;;;;;;11.31;100.00;97180.88;5008463;28;20517;-77
2022/10/07 04:36:37;;;;;;;7.17;4.20;;;;;;;11.38;100.00;97180.31;5010796;28;20629;-77
2022/10/07 04:39:06;;;;;;;7.60;4.23;;;;;;;11.37;100.00;97182.13;5016928;28;20037;-79
2022/10/07 04:41:35;;;;;;;7.93;4.00;;;;;;;11.36;100.00;97177.78;5014756;28;20021;-77
2022/10/07 04:44:03;;;;;;;8.13;4.13;;;;;;;11.43;100.00;97172.78;5022583;28;20030;-79
2022/10/07 04:46:34;;;;;;;8.10;4.87;;;;;;;11.48;100.00;97179.31;5005035;28;20037;-80
2022/10/07 04:49:05;;;;;;;9.77;5.33;;;;;;;11.45;100.00;97171.69;5002666;28;20030;-79
2022/10/07 04:51:31;;;;;;;15.43;7.80;;;;;;;11.51;100.00;97163.22;5002692;28;20172;-80
2022/10/07 04:53:59;;;;;;;17.57;10.80;;;;;;;11.45;100.00;97173.50;5017698;28;20810;-83
2022/10/07 04:56:32;;;;;;;12.03;5.97;;;;;;;11.45;100.00;97171.69;5024297;28;20097;-81
2022/10/07 04:58:59;;;;;;;8.93;5.10;;;;;;;11.57;100.00;97167.09;5005351;28;20108;-83
2022/10/07 05:01:25;;;;;;;9.07;4.37;;;;;;;11.51;100.00;97162.41;5016694;28;20064;-84
2022/10/07 05:03:51;;;;;;;9.70;4.47;;;;;;;11.53;100.00;97163.91;5043346;28;20033;-82
2022/10/07 05:06:17;;;;;;;10.67;4.30;;;;;;;11.55;100.00;97155.88;5032648;28;20313;-80
2022/10/07 05:08:44;;;;;;;9.57;4.43;;;;;;;11.60;100.00;97155.44;5004532;28;20057;-80
2022/10/07 05:11:11;;;;;;;10.37;3.73;;;;;;;11.66;100.00;97149.59;5028129;28;20058;-81
2022/10/07 05:13:47;;;;;;;5.80;3.30;;;;;;;11.66;100.00;97142.50;5011665;28;20043;-81
2022/10/07 05:16:14;;;;;;;8.37;2.80;;;;;;;11.71;100.00;97152.63;5015616;28;20041;-81
2022/10/07 05:18:39;;;;;;;5.17;2.20;;;;;;;11.86;100.00;97140.66;5034570;28;20033;-81
2022/10/07 05:21:09;;;;;;;5.43;2.40;;;;;;;11.91;100.00;97143.72;5027862;28;20029;-81
2022/10/07 05:23:38;;;;;;;7.17;2.40;;;;;;;11.86;100.00;97145.94;5004309;28;20490;-82
2022/10/07 05:26:09;;;;;;;8.87;3.30;;;;;;;11.95;100.00;97142.44;5046469;28;20036;-80
2022/10/07 05:28:38;;;;;;;23.83;10.80;;;;;;;11.95;100.00;97138.97;4998335;28;20398;-81
2022/10/07 05:31:13;;;;;;;21.70;7.03;;;;;;;12.01;100.00;97133.97;4994514;28;20025;-80
2022/10/07 05:33:42;;;;;;;11.63;3.93;;;;;;;11.97;100.00;97129.97;4996823;28;20058;-82
2022/10/07 05:36:11;;;;;;;10.20;3.70;;;;;;;12.06;100.00;97130.03;4994550;28;20120;-81
2022/10/07 05:38:37;;;;;;;11.53;4.03;;;;;;;12.05;100.00;97129.22;5019265;28;20033;-82
2022/10/07 05:41:06;;;;;;;8.83;2.90;;;;;;;12.15;100.00;97124.72;4999620;28;20038;-82
2022/10/07 05:43:35;;;;;;;6.60;3.03;;;;;;;12.09;100.00;97127.13;4997258;28;20128;-82
2022/10/07 05:46:06;;;;;;;7.13;2.70;;;;;;;12.13;100.00;97115.28;5035037;28;20180;-82
2022/10/07 05:48:35;;;;;;;7.47;2.10;;;;;;;12.10;100.00;97120.84;4995150;28;20049;-81
2022/10/07 05:51:02;;;;;;;6.47;2.50;;;;;;;12.08;100.00;97115.75;5021017;28;20034;-82
2022/10/07 05:53:30;;;;;;;7.63;2.43;;;;;;;12.08;100.00;97117.56;5001248;28;20029;-80
2022/10/07 05:55:57;;;;;;;4.90;2.20;;;;;;;12.12;100.00;97113.66;5002524;28;20033;-82
2022/10/07 05:58:25;;;;;;;5.97;2.03;;;;;;;12.13;100.00;97120.56;5019996;28;20025;-81
2022/10/07 06:00:54;;;;;;;5.77;1.70;;;;;;;12.10;100.00;97115.59;5016861;28;20534;-82
2022/10/07 06:03:21;;;;;;;6.20;2.00;;;;;;;12.16;100.00;97107.09;4989855;28;20435;-82
2022/10/07 06:05:51;;;;;;;6.60;2.30;;;;;;;12.21;100.00;97108.31;5002072;28;20030;-81
2022/10/07 06:08:18;;;;;;;5.83;2.43;;;;;;;12.17;100.00;97106.09;5030230;28;20030;-79
2022/10/07 06:13:34;;;;;;;7.17;2.47;;;;;;;12.20;100.00;97106.63;5024927;28;20049;-82
2022/10/07 06:16:05;;;;;;;7.13;2.40;;;;;;;12.22;100.00;97114.41;5000804;28;20040;-80
2022/10/07 06:18:31;;;;;;;7.30;2.30;;;;;;;12.28;100.00;97108.56;5021456;28;20034;-78
2022/10/07 06:20:59;;;;;;;8.77;2.70;;;;;;;12.38;100.00;97108.50;5028458;28;20025;-79
2022/10/07 06:23:27;;;;;;;5.57;3.33;;;;;;;12.43;100.00;97106.22;5004013;28;20076;-78
2022/10/07 06:26:03;;;;;;;11.60;2.90;;;;;;;12.48;100.00;97109.25;5003579;28;20021;-80
2022/10/07 06:28:47;;;;;;;5.07;2.40;;;;;;;12.55;100.00;97109.50;5014500;28;20037;-79
2022/10/07 06:31:21;;;;;;;6.57;2.20;;;;;;;12.54;100.00;97118.38;5006411;28;20058;-79
2022/10/07 06:33:48;;;;;;;6.78;1.50;;;;;;;12.58;100.00;97122.38;5032930;28;20025;-79
2022/10/07 06:36:14;;;;;;;8.47;2.23;;;;;;;12.65;100.00;97111.06;5023876;28;20072;-79
2022/10/07 06:38:47;;;;;;;5.90;2.40;;;;;;;12.79;100.00;97112.34;5000693;28;20038;-79
2022/10/07 06:41:14;;;;;;;4.70;2.10;;;;;;;12.80;100.00;97116.66;5030384;28;20035;-79
2022/10/07 06:43:41;;;;;;;6.97;2.87;;;;;;;12.80;100.00;97113.19;4995359;28;20091;-77
2022/10/07 06:46:17;;;;;;;5.70;1.90;;;;;;;12.84;100.00;97112.72;4991997;28;20030;-76
2022/10/07 06:48:45;;;;;;;10.10;2.50;;;;;;;12.87;100.00;97104.50;5012213;28;20044;-77
2022/10/07 06:51:13;;;;;;;7.40;2.40;;;;;;;12.91;100.00;97105.88;5020062;28;20680;-77
2022/10/07 06:53:39;;;;;;;6.83;2.40;;;;;;;13.08;100.00;97111.28;5018237;28;20030;-77
2022/10/07 06:56:05;;;;;;;6.93;2.07;;;;;;;13.27;100.00;97100.53;5027705;28;20040;-77
2022/10/07 06:58:35;;;;;;;14.67;2.80;;;;;;;13.30;100.00;97099.41;5022478;28;20540;-77
2022/10/07 07:01:04;;;;;;;12.20;2.63;;;;;;;13.23;100.00;97101.81;5017801;28;20045;-77
2022/10/07 07:03:31;;;;;;;6.47;2.30;;;;;;;13.54;100.00;97101.38;5034202;28;20040;-77
2022/10/07 07:05:59;;;;;;;7.83;2.43;;;;;;;13.48;100.00;97102.00;5013317;28;20567;-77
2022/10/07 07:08:31;;;;;;;8.70;2.47;;;;;;;13.71;100.00;97097.81;5000731;28;20740;-78
2022/10/07 07:14:05;;;;;;;7.03;2.17;;;;;;;13.91;100.00;97095.78;5022490;28;20520;-77
2022/10/07 07:16:31;;;;;;;6.57;2.20;;;;;;;14.01;100.00;97096.47;5003909;28;20126;-77
2022/10/07 07:19:00;;;;;;;5.50;2.60;;;;;;;14.21;100.00;97096.22;5010483;28;20048;-78
2022/10/07 07:21:32;;;;;;;5.37;1.93;;;;;;;14.36;100.00;97095.44;5019569;28;20026;-77
2022/10/07 07:23:58;;;;;;;4.00;1.70;;;;;;;14.52;100.00;97094.69;5006045;28;20901;-77
2022/10/07 07:26:24;;;;;;;5.90;1.80;;;;;;;14.57;100.00;97095.00;5003711;28;20033;-77
2022/10/07 07:28:51;;;;;;;5.35;1.88;;;;;;;14.76;100.00;97093.06;5050161;28;20045;-77
2022/10/07 07:31:17;;;;;;;8.18;1.85;;;;;;;14.95;100.00;97097.19;4999092;28;20410;-78
2022/10/07 07:33:43;;;;;;;3.95;1.48;;;;;;;15.15;100.00;97098.50;5005973;28;20045;-78
2022/10/07 07:36:15;;;;;;;5.03;1.90;;;;;;;15.32;100.00;97099.31;5029581;28;20037;-77
2022/10/07 07:38:50;;;;;;;5.38;1.98;;;;;;;15.34;100.00;97097.34;5021174;28;20882;-78
2022/10/07 07:41:17;;;;;;;7.05;2.40;;;;;;;15.22;100.00;97094.19;5000129;28;20083;-77
2022/10/07 07:43:50;;;;;;;6.35;2.00;;;;;;;15.58;100.00;97083.22;5027634;28;20026;-77
2022/10/07 07:46:17;;;;;;;6.10;2.22;;;;;;;15.64;100.00;97085.19;5025909;28;20105;-78
2022/10/07 07:48:43;;;;;;;9.20;1.90;;;;;;;15.54;100.00;97087.19;5017978;28;20030;-78
2022/10/07 07:51:09;;;;;;;6.05;1.80;;;;;;;15.85;100.00;97083.81;5032486;28;21014;-78
2022/10/07 07:53:38;;;;;;;5.68;2.60;;;;;;;15.77;100.00;97082.03;5007759;28;20551;-79
2022/10/07 07:56:05;;;;;;;6.25;2.10;;;;;;;15.93;100.00;97076.69;5006557;28;20041;-78
2022/10/07 07:58:31;;;;;;;6.95;1.92;;;;;;;15.70;100.00;97079.25;5009303;28;20030;-78
2022/10/07 08:01:06;;;;;;;5.57;1.85;;;;;;;15.76;100.00;97086.50;4986942;28;20096;-77
2022/10/07 08:03:32;;;;;;;5.22;1.83;;;;;;;16.22;100.00;97065.41;5020720;28;20042;-78
2022/10/07 08:06:00;;;;;;;5.45;1.88;;;;;;;16.24;100.00;97065.25;5054693;28;20045;-78
2022/10/07 08:08:27;;;;;;;6.65;1.98;;;;;;;16.59;100.00;97065.69;5016994;28;20132;-77
2022/10/07 08:10:53;;;;;;;8.00;1.77;;;;;;;17.86;100.00;97058.75;5021122;28;20080;-78
2022/10/07 08:13:19;;;;;;;5.53;1.80;;;;;;;17.29;100.00;97059.34;5025357;28;20064;-78
2022/10/07 08:15:45;;;;;;;5.43;1.83;;;;;;;17.62;100.00;97057.97;5025330;28;20598;-78
2022/10/07 08:18:11;;;;;;;8.52;1.77;;;;;;;17.19;100.00;97065.72;5016874;28;20057;-77
2022/10/07 08:20:36;;;;;;;5.28;2.10;;;;;;;16.89;100.00;97062.16;4993714;28;20106;-77
2022/10/07 08:23:05;;;;;;;4.80;1.88;;;;;;;16.98;100.00;97062.13;5023860;28;20420;-78
2022/10/07 08:25:31;;;;;;;6.57;1.73;;;;;;;17.18;100.00;97058.75;5015315;28;20042;-78
2022/10/07 08:27:59;;;;;;;4.45;1.73;;;;;;;18.42;100.00;97051.03;5014522;28;20682;-77
2022/10/07 08:30:26;;;;;;;5.10;1.73;;;;;;;18.83;100.00;97045.09;5001130;28;20491;-78
2022/10/07 08:32:53;;;;;;;3.33;1.63;;;;;;;18.95;100.00;97042.75;5011168;28;20036;-78
2022/10/07 08:35:19;;;;;;;5.75;1.83;;;;;;;18.56;100.00;97044.00;5007596;28;20048;-78
2022/10/07 08:37:44;;;;;;;7.80;1.60;;;;;;;19.00;100.00;97041.16;5024967;28;20025;-78
2022/10/07 08:40:16;;;;;;;7.80;1.90;;;;;;;17.92;100.00;97047.38;5021613;28;20056;-77
2022/10/07 08:42:43;;;;;;;3.90;1.80;;;;;;;18.60;100.00;97040.75;5032583;28;20033;-78
2022/10/07 08:45:16;;;;;;;4.88;1.83;;;;;;;18.93;100.00;97040.25;5019778;28;20072;-77
2022/10/07 08:47:44;;;;;;;7.13;2.72;;;;;;;19.57;100.00;97033.13;4997097;28;20033;-77
2022/10/07 08:50:29;;;;;;;5.97;2.00;;;;;;;19.75;100.00;97033.47;5056085;28;20232;-77
2022/10/07 08:53:07;;;;;;;6.85;1.80;;;;;;;19.01;100.00;97045.47;5022161;28;20042;-77
2022/10/07 08:55:50;;;;;;;8.98;2.00;;;;;;;19.61;100.00;97029.88;5015148;28;20042;-77
2022/10/07 08:58:35;;;;;;;;;;;;;;;19.16;100.00;97033.91;5026369;28;20110;-77
2022/10/07 09:01:24;;;;;;;5.18;1.90;;;;;;;19.59;100.00;97029.25;5014512;28;20289;-77
2022/10/07 09:04:12;;;;;;;7.13;2.10;;;;;;;19.89;100.00;97026.38;5011440;28;20117;-77
2022/10/07 09:06:43;;;;;;;6.55;1.83;;;;;;;20.31;100.00;97011.91;4992260;28;20091;-77
2022/10/07 09:09:19;;;;;;;4.18;1.45;;;;;;;20.70;100.00;97016.56;5009845;28;20156;-77
2022/10/07 09:11:47;;;;;;;7.15;2.20;;;;;;;20.74;100.00;97008.94;5018081;28;20084;-77
2022/10/07 09:14:36;;;;;;;6.95;2.22;;;;;;;20.65;100.00;97004.81;5017483;28;20402;-78
2022/10/07 09:17:18;;;;;;;6.60;1.92;;;;;;;21.00;100.00;97000.13;5016460;28;20037;-77
2022/10/07 09:19:47;;;;;;;9.10;2.08;;;;;;;20.27;100.00;96999.19;5013544;28;20121;-77
2022/10/07 09:22:20;;;;;;;4.75;2.10;;;;;;;19.38;100.00;97010.66;5049489;28;20030;-77
2022/10/07 09:24:48;;;;;;;11.10;2.92;;;;;;;20.12;100.00;97005.50;5019664;28;20038;-76
2022/10/07 09:27:16;;;;;;;7.85;2.47;;;;;;;19.90;100.00;97002.13;5023344;28;20502;-77
2022/10/07 09:29:42;;;;;;;6.53;2.20;;;;;;;20.69;100.00;96992.69;5004352;28;20040;-77
2022/10/07 09:32:16;;;;;;;10.05;2.88;;;;;;;19.73;100.00;96993.63;5011561;28;20595;-77
2022/10/07 09:34:42;;;;;;;8.20;2.95;;;;;;;19.54;100.00;96995.16;5024359;28;20034;-78
2022/10/07 09:37:22;;;;;;;7.70;3.10;;;;;;;20.46;100.00;96982.38;5018995;28;20092;-78
2022/10/07 09:39:50;;;;;;;6.35;2.35;;;;;;;21.13;100.00;96978.72;5015549;28;20128;-77
2022/10/07 09:42:42;;;;;;;6.57;2.20;;;;;;;21.66;99.97;96975.09;4998325;28;20036;-77
2022/10/07 09:45:27;;;;;;;7.88;2.22;;;;;;;21.00;100.00;96983.25;5023304;28;20438;-78
2022/10/07 09:47:55;;;;;;;6.97;1.95;;;;;;;21.78;100.00;96970.75;5003376;28;20040;-78
2022/10/07 09:50:41;;;;;;;4.82;2.00;;;;;;;21.04;100.00;96977.28;5005220;28;20029;-77
2022/10/07 09:53:23;;;;;;;8.48;2.50;;;;;;;21.46;100.00;96977.03;5005977;28;20034;-78
2022/10/07 09:55:51;;;;;;;10.18;2.38;;;;;;;20.30;100.00;96975.56;5014917;28;20509;-78
2022/10/07 09:58:25;;;;;;;8.18;2.10;;;;;;;20.49;100.00;96971.28;5062100;28;20089;-78
2022/10/07 10:00:53;;;;;;;8.15;2.28;;;;;;;20.76;100.00;96969.47;5006600;28;20038;-78
2022/10/07 10:03:20;;;;;;;7.10;2.20;;;;;;;21.71;99.85;96961.09;5040085;28;20506;-78
2022/10/07 10:05:58;;;;;;;6.85;2.15;;;;;;;22.01;98.46;96962.19;4999540;28;20058;-78
2022/10/07 10:08:31;;;;;;;6.38;2.67;;;;;;;21.37;100.00;96953.19;5029449;28;20061;-78
2022/10/07 10:11:21;;;;;;;8.73;2.28;;;;;;;21.92;99.51;96962.66;5019728;28;20042;-77
2022/10/07 10:13:49;;;;;;;5.10;2.00;;;;;;;21.29;100.00;96966.72;5027134;28;20042;-79
2022/10/07 10:16:24;;;;;;;6.53;2.72;;;;;;;20.62;100.00;96965.13;5014481;28;20766;-79
2022/10/07 10:18:55;;;;;;;7.05;2.40;;;;;;;21.40;100.00;96958.13;5023223;28;20040;-77
2022/10/07 10:21:38;;;;;;;4.75;2.05;;;;;;;22.12;96.85;96953.47;5002668;28;20042;-79
2022/10/07 10:24:11;;;;;;;7.28;2.28;;;;;;;22.04;94.15;96958.28;5022669;28;20415;-78
2022/10/07 10:26:36;;;;;;;6.90;2.50;;;;;;;22.60;92.08;96954.84;5022112;28;20033;-77
2022/10/07 10:29:12;;;;;;;4.43;2.15;;;;;;;22.53;84.72;96954.91;5030711;28;20033;-78
2022/10/07 10:32:01;;;;;;;5.90;2.50;;;;;;;22.65;85.67;96951.53;5004142;28;20042;-79
2022/10/07 10:35:01;;;;;;;7.20;2.72;;;;;;;21.70;92.52;96940.72;5025275;28;20053;-78
2022/10/07 10:37:27;;;;;;;6.75;2.15;;;;;;;21.11;99.37;96939.81;5038443;28;20030;-78
2022/10/07 10:40:12;;;;;;;4.28;1.75;;;;;;;22.15;98.15;96932.66;5022108;28;20064;-78
2022/10/07 10:42:38;;;;;;;7.10;2.13;;;;;;;23.15;88.98;96919.34;5026372;28;20538;-78
2022/10/07 10:45:24;;;;;;;8.68;2.30;;;;;;;22.77;87.66;96926.47;5061408;28;20022;-78
2022/10/07 10:48:01;;;;;;;7.70;2.13;;;;;;;22.12;92.64;96918.66;5015744;28;20130;-78
2022/10/07 10:50:27;;;;;;;6.10;2.65;;;;;;;22.95;84.50;96914.19;5024225;28;20057;-79
2022/10/07 10:53:15;;;;;;;13.05;2.45;;;;;;;21.98;92.08;96908.25;5025199;28;20060;-78
2022/10/07 10:56:02;;;;;;;4.78;2.22;;;;;;;21.80;93.16;96899.09;5023654;28;20027;-79
2022/10/07 10:58:46;;;;;;;10.60;2.70;;;;;;;22.24;88.73;96908.13;5017522;28;20044;-78
2022/10/07 11:01:19;;;;;;;6.38;2.25;;;;;;;21.81;91.93;96908.75;5018303;28;20041;-78
2022/10/07 11:04:08;;;;;;;7.18;2.13;;;;;;;21.14;99.73;96904.63;5024043;28;20097;-78
2022/10/07 11:06:37;;;;;;;6.18;2.05;;;;;;;21.42;99.12;96897.16;5000029;28;20045;-77
2022/10/07 11:09:07;;;;;;;7.18;2.17;;;;;;;21.79;97.20;96896.59;5050731;28;20041;-77
2022/10/07 11:11:34;;;;;;;7.18;2.30;;;;;;;21.97;94.09;96896.72;5027771;28;20034;-78
2022/10/07 11:14:11;;;;;;;8.15;2.10;;;;;;;22.80;91.30;96893.00;5023677;28;20044;-78
2022/10/07 11:16:49;;;;;;;5.88;2.70;;;;;;;22.52;91.10;96890.78;5005976;28;20129;-78
2022/10/07 11:19:34;;;;;;;3.85;2.10;;;;;;;23.38;83.49;96886.50;5015362;28;20033;-79
2022/10/07 11:22:01;;;;;;;6.80;2.40;;;;;;;23.37;82.15;96879.47;5044862;28;20037;-78
2022/10/07 11:24:35;;;;;;;4.68;2.40;;;;;;;23.18;86.11;96879.47;5012395;28;20044;-78
2022/10/07 11:27:13;;;;;;;6.60;1.92;;;;;;;24.21;78.17;96875.91;5011389;28;20777;-78
2022/10/07 11:29:48;;;;;;;8.73;2.28;;;;;;;22.76;89.31;96876.56;5013486;28;20033;-78
2022/10/07 11:32:29;;;;;;;8.50;2.83;;;;;;;22.61;89.28;96878.78;5016968;28;20490;-78
2022/10/07 11:35:32;;;;;;;6.15;1.90;;;;;;;22.73;89.05;96865.44;5030015;28;20038;-78
2022/10/07 11:38:13;;;;;;;11.68;2.22;;;;;;;22.12;92.17;96874.97;5006477;28;20026;-78
2022/10/07 11:40:56;;;;;;;9.57;2.78;;;;;;;21.58;98.16;96862.94;5007559;28;20033;-78
2022/10/07 11:43:27;;;;;;;12.45;2.75;;;;;;;21.24;100.00;96854.19;5011283;28;20037;-79
2022/10/07 11:45:59;;;;;;;6.50;2.38;;;;;;;21.09;100.00;96848.28;5003612;28;20038;-77
2022/10/07 11:48:50;;;;;;;4.13;2.10;;;;;;;21.04;100.00;96846.25;5023956;28;20034;-78
2022/10/07 11:51:36;;;;;;;8.38;2.60;;;;;;;21.00;100.00;96839.69;5040192;28;20559;-79